Impacts TAF Board
For situational awareness. Not to be used for flight planning purposes.
IDs:

KHOU - Houston/Hobby Arpt, TX, US

Issued at 1730 UTC 13 Aug 2020
Updated at 2016 UTC 13 Aug 2020
Potential Impact None Slight Moderate High
Time<<14/09Z 14/10Z 14/11Z 14/12Z 14/13Z 14/14Z 14/15Z 14/16Z 14/17Z 14/18Z 14/19Z 14/20Z 14/21Z>>
Type PRVL PRVL PRVL PRVL PRVL PRVL PRVL PRVL PRVL
VIS >6 >6 >6 >6 >6 >6 >6 >6 >6
CIG -- -- -- -- -- -- -- -- --
Cover FEW FEW FEW FEW FEW FEW FEW FEW FEW
FltCat VFR VFR VFR VFR VFR VFR VFR VFR VFR
WX -- -- -- -- -- -- -- -- --
WDir 200 200 200 200 200 230 230 230 230
WSpd 4 4 4 4 4 8 8 8 8
WGst -- -- -- -- -- -- -- -- --
R04/22
XWnd -2 -2 -2 -2 -2 1 1 1 1 0 0 0 0
HWnd -4 -4 -4 -4 -4 -8 -8 -8 -8 0 0 0 0
R12/30
XWnd -4 -4 -4 -4 -4 -8 -8 -8 -8 0 0 0 0
HWnd 2 2 2 2 2 -1 -1 -1 -1 0 0 0 0
R17/35
XWnd -1 -1 -1 -1 -1 -6 -6 -6 -6 0 0 0 0
HWnd 4 4 4 4 4 5 5 5 5 0 0 0 0
Raw TAF
KHOU 131730Z 1318/1418 21008KT P6SM FEW040
  FM132000 18008KT P6SM SCT250
  FM140700 20004KT P6SM FEW250
  FM141400 23008KT P6SM FEW025


METAR Board
Radar Display
Forecast Discussion
For situational awareness. Not to be used for flight planning purposes.